createdAt,value
2022-12-15T00:01:55.327Z,16.90
2022-12-15T00:04:48.921Z,17.27
2022-12-15T00:07:44.082Z,15.75
2022-12-15T00:10:37.184Z,15.30
2022-12-15T00:13:35.408Z,14.60
2022-12-15T00:16:27.865Z,15.95
2022-12-15T00:19:22.784Z,15.48
2022-12-15T00:22:15.817Z,15.98
2022-12-15T00:25:12.242Z,15.57
2022-12-15T00:31:02.325Z,14.10
2022-12-15T00:33:58.283Z,14.88
2022-12-15T00:36:52.089Z,16.60
2022-12-15T00:39:26.284Z,16.10
2022-12-15T00:41:59.772Z,18.75
2022-12-15T00:44:34.831Z,15.02
2022-12-15T00:47:11.116Z,17.20
2022-12-15T00:50:09.518Z,14.73
2022-12-15T00:53:06.223Z,18.48
2022-12-15T00:56:01.512Z,14.07
2022-12-15T00:59:00.890Z,15.50
2022-12-15T01:01:59.478Z,20.55
2022-12-15T01:04:56.119Z,17.00
2022-12-15T01:07:51.319Z,16.55
2022-12-15T01:10:44.399Z,17.70
2022-12-15T01:13:40.652Z,12.80
2022-12-15T01:16:35.415Z,16.55
2022-12-15T01:19:32.798Z,16.60
2022-12-15T01:22:10.653Z,17.87
2022-12-15T01:24:44.927Z,17.42
2022-12-15T01:27:20.543Z,18.17
2022-12-15T01:29:54.976Z,17.58
2022-12-15T01:32:30.628Z,16.23
2022-12-15T01:35:07.894Z,18.92
2022-12-15T01:37:43.622Z,19.37
2022-12-15T01:40:37.653Z,16.45
2022-12-15T01:43:14.788Z,14.93
2022-12-15T01:45:48.908Z,16.97
2022-12-15T01:48:32.244Z,17.42
2022-12-15T01:51:05.838Z,17.95
2022-12-15T01:53:43.897Z,15.30
2022-12-15T01:56:18.768Z,17.25
2022-12-15T01:58:56.143Z,17.90
2022-12-15T02:01:31.083Z,16.50
2022-12-15T02:04:07.773Z,19.83
2022-12-15T02:06:41.624Z,16.88
2022-12-15T02:09:18.142Z,19.13
2022-12-15T02:11:52.930Z,18.48
2022-12-15T02:14:45.356Z,19.53
2022-12-15T02:17:18.655Z,20.50
2022-12-15T02:20:26.286Z,13.90
2022-12-15T02:22:59.802Z,18.17
2022-12-15T02:26:03.387Z,16.27
2022-12-15T02:28:38.883Z,16.40
2022-12-15T02:31:51.396Z,16.85
2022-12-15T02:34:26.912Z,20.63
2022-12-15T02:37:04.851Z,18.42
2022-12-15T02:39:40.548Z,17.10
2022-12-15T02:42:13.664Z,18.15
2022-12-15T02:44:59.560Z,17.55
2022-12-15T02:47:33.798Z,16.98
2022-12-15T02:50:29.923Z,16.25
2022-12-15T02:53:04.656Z,21.65
2022-12-15T02:56:01.583Z,21.83
2022-12-15T02:58:36.728Z,21.45
2022-12-15T03:01:14.388Z,26.60
2022-12-15T03:03:49.684Z,26.35
2022-12-15T03:06:25.455Z,30.67
2022-12-15T03:09:00.826Z,24.42
2022-12-15T03:11:38.710Z,22.13
2022-12-15T03:14:13.713Z,20.77
2022-12-15T03:16:50.298Z,19.10
2022-12-15T03:19:26.172Z,26.20
2022-12-15T03:22:04.344Z,22.23
2022-12-15T03:24:39.925Z,22.45
2022-12-15T03:27:16.071Z,22.17
2022-12-15T03:29:50.768Z,21.50
2022-12-15T03:32:25.739Z,21.80
2022-12-15T03:35:01.884Z,19.00
2022-12-15T03:37:38.253Z,23.08
2022-12-15T03:40:14.138Z,22.83
2022-12-15T03:42:52.583Z,26.50
2022-12-15T03:45:28.739Z,36.42
2022-12-15T03:48:04.259Z,28.77
2022-12-15T03:50:39.756Z,26.93
2022-12-15T03:53:14.775Z,29.42
2022-12-15T03:55:52.503Z,27.55
2022-12-15T03:58:27.678Z,28.50
2022-12-15T04:01:19.160Z,34.67
2022-12-15T04:04:00.248Z,28.95
2022-12-15T04:06:34.648Z,36.10
2022-12-15T04:09:10.565Z,26.45
2022-12-15T04:11:44.695Z,28.77
2022-12-15T04:14:22.664Z,33.80
2022-12-15T04:16:57.039Z,32.67
2022-12-15T04:19:52.254Z,29.50
2022-12-15T04:22:25.722Z,34.30
2022-12-15T04:28:01.241Z,31.13
2022-12-15T04:30:57.936Z,27.92
2022-12-15T04:36:24.574Z,55.17
2022-12-15T04:39:20.547Z,31.75
2022-12-15T04:42:17.199Z,23.45
2022-12-15T04:45:16.980Z,27.98
2022-12-15T04:48:15.641Z,27.00
2022-12-15T04:51:11.260Z,23.33
2022-12-15T04:54:07.663Z,24.70
2022-12-15T04:57:03.106Z,23.40
2022-12-15T04:59:57.315Z,24.00
2022-12-15T05:02:53.632Z,19.02
2022-12-15T05:05:47.682Z,23.13
2022-12-15T05:11:18.951Z,21.63
2022-12-15T05:14:22.427Z,22.95
2022-12-15T05:17:21.778Z,19.15
2022-12-15T05:26:55.675Z,21.65
2022-12-15T05:29:41.435Z,22.95
2022-12-15T05:32:16.598Z,20.35
2022-12-15T05:34:51.040Z,28.13
2022-12-15T05:37:26.576Z,26.38
2022-12-15T05:40:00.620Z,30.98
2022-12-15T05:42:34.815Z,28.55
2022-12-15T05:45:02.000Z,25.13
2022-12-15T05:50:07.883Z,23.35
2022-12-15T05:55:23.810Z,26.15
2022-12-15T05:57:58.846Z,25.27
2022-12-15T06:00:32.956Z,23.60
2022-12-15T06:03:08.641Z,27.90
2022-12-15T06:05:36.057Z,26.17
2022-12-15T06:08:16.659Z,29.48
2022-12-15T06:10:53.914Z,25.92
2022-12-15T06:13:53.828Z,28.20
2022-12-15T06:16:27.807Z,29.80
2022-12-15T06:19:02.304Z,24.25
2022-12-15T06:21:39.590Z,23.42
2022-12-15T06:27:03.974Z,25.33
2022-12-15T06:29:49.006Z,21.52
2022-12-15T06:37:59.086Z,22.55
2022-12-15T06:40:26.691Z,24.88
2022-12-15T06:45:47.800Z,20.52
2022-12-15T06:48:25.884Z,26.15
2022-12-15T06:51:12.003Z,28.08
2022-12-15T06:59:34.828Z,26.33
2022-12-15T07:02:25.214Z,27.83
2022-12-15T07:08:03.820Z,32.30
2022-12-15T07:10:55.346Z,27.17
2022-12-15T07:13:22.900Z,30.90
2022-12-15T07:15:50.415Z,31.80
2022-12-15T07:18:18.668Z,32.67
2022-12-15T08:25:37.788Z,28.98
2022-12-15T08:34:09.752Z,30.35
2022-12-15T08:36:48.305Z,39.00
2022-12-15T08:39:24.128Z,37.53
2022-12-15T08:42:02.194Z,36.85
2022-12-15T08:44:36.671Z,35.92
2022-12-15T08:47:13.234Z,33.13
2022-12-15T08:49:49.028Z,30.73
2022-12-15T08:52:33.042Z,40.15
2022-12-15T08:58:29.110Z,35.63
2022-12-15T09:01:24.396Z,29.52
2022-12-15T09:03:59.055Z,32.45
2022-12-15T09:06:30.997Z,29.60
2022-12-15T09:09:08.228Z,32.50
2022-12-15T09:14:29.097Z,33.85
2022-12-15T09:17:07.020Z,30.40
2022-12-15T09:19:42.839Z,31.60
2022-12-15T09:22:30.432Z,29.30
2022-12-15T09:25:11.659Z,32.50
2022-12-15T09:27:39.125Z,35.47
2022-12-15T09:32:47.645Z,30.45
2022-12-15T09:38:19.125Z,36.72
2022-12-15T09:40:46.525Z,33.25
2022-12-15T09:43:34.346Z,39.85
2022-12-15T09:46:13.157Z,34.00
2022-12-15T09:48:50.750Z,33.13
2022-12-15T09:51:27.868Z,41.40
2022-12-15T09:54:36.008Z,38.28
2022-12-15T10:14:21.717Z,47.10
2022-12-15T10:22:27.724Z,41.65
2022-12-15T10:31:39.150Z,39.65
2022-12-15T11:57:13.370Z,26.80
2022-12-15T12:53:36.297Z,29.88
2022-12-15T13:16:22.787Z,38.53
2022-12-15T13:19:00.178Z,34.47
2022-12-15T13:21:50.171Z,34.00
2022-12-15T13:27:25.312Z,30.20
2022-12-15T13:29:58.383Z,35.78
2022-12-15T13:41:26.296Z,32.72
2022-12-15T13:44:23.625Z,31.13
2022-12-15T13:47:44.439Z,30.88
2022-12-15T14:14:32.662Z,33.37
2022-12-15T14:17:14.109Z,31.75
2022-12-15T15:00:40.851Z,29.05
2022-12-15T15:09:26.967Z,42.03
2022-12-15T15:12:09.571Z,35.70
2022-12-15T15:18:21.402Z,34.10
2022-12-15T15:21:10.935Z,34.53
2022-12-15T15:23:41.941Z,37.20
2022-12-15T15:26:19.161Z,39.58
2022-12-15T15:29:38.458Z,37.30
2022-12-15T15:34:53.077Z,36.15
2022-12-15T15:40:02.729Z,34.33
2022-12-15T15:48:33.758Z,30.05
2022-12-15T15:54:38.640Z,32.05
2022-12-15T16:00:20.072Z,30.85
2022-12-15T16:02:47.359Z,31.52
2022-12-15T16:05:42.125Z,34.47
2022-12-15T16:24:42.998Z,33.47
2022-12-15T16:30:40.965Z,35.38
2022-12-15T16:39:17.005Z,35.70
2022-12-15T16:41:46.744Z,33.80
2022-12-15T16:59:41.552Z,38.67
2022-12-15T17:05:21.281Z,35.08
2022-12-15T17:07:51.533Z,36.85
2022-12-15T17:10:35.343Z,34.90
2022-12-15T17:15:40.765Z,35.20
2022-12-15T17:18:15.228Z,37.05
2022-12-15T17:21:03.781Z,37.33
2022-12-15T17:23:34.597Z,35.78
2022-12-15T17:26:22.507Z,35.13
2022-12-15T17:28:55.981Z,37.35
2022-12-15T17:31:35.538Z,35.42
2022-12-15T17:34:18.284Z,42.05
2022-12-15T17:36:49.490Z,36.25
2022-12-15T17:39:29.803Z,39.17
2022-12-15T17:42:11.610Z,36.75
2022-12-15T17:44:47.956Z,39.10
2022-12-15T17:47:30.867Z,37.15
2022-12-15T17:50:09.559Z,37.40
2022-12-15T17:52:47.070Z,34.38
2022-12-15T17:55:34.638Z,37.35
2022-12-15T17:58:04.767Z,38.45
2022-12-15T18:00:33.271Z,40.35
2022-12-15T18:03:07.293Z,39.00
2022-12-15T18:05:35.084Z,36.45
2022-12-15T18:08:10.027Z,36.78
2022-12-15T18:10:51.839Z,38.78
2022-12-15T18:13:49.107Z,37.67
2022-12-15T18:16:25.208Z,35.40
2022-12-15T18:18:55.786Z,41.13
2022-12-15T18:29:56.064Z,35.45
2022-12-15T18:32:30.027Z,37.90
2022-12-15T18:35:17.251Z,35.70
2022-12-15T18:37:44.643Z,39.35
2022-12-15T18:40:31.278Z,36.60
2022-12-15T18:42:58.776Z,35.40
2022-12-15T18:45:28.316Z,36.85
2022-12-15T18:47:56.035Z,35.58
